Sea Dolphin C — V7XL9 — position and weather

sailwx.info

Track history (hours):
 
Tides and Currents Weather Stations Pressure Air Temp Water Temp Dewpoint Dewpoint Depression Visibility Wind Speed Wind Dir Waves Ship Positions

Sea Dolphin C

Last reported at 2016-Aug-06 14:10 UTC. Time now 2016-Aug-24 16:16 UTC.
Position N 28°02' W 015°20'.
Warning: this ship's position is 18 days out of date.

Length 181 m; draft 10.2 m.

Type: Cargo ship. MMSI: 538004513.

Date/timePositionNaut miles runAvg speedWind from/ knotsBaromVisibWave heightAir tempDewpointWater temp
2016-Aug-06 14:10N 28°02' W 015°20'4 6.3
2016-Aug-06 13:34N 28°05' W 015°22'2 2.1
2016-Aug-06 12:33N 28°07' W 015°21'1 0.6
2016-Aug-06 11:34N 28°08' W 015°22'1010.2
2016-Aug-06 10:32N 28°18' W 015°17'23811.9
2016-Aug-05 14:33N 32°06' W 014°02'1211.7
2016-Aug-05 13:33N 32°18' W 013°59'1211.8
2016-Aug-05 12:33N 32°29' W 013°55'1311.9
2016-Aug-05 11:26N 32°42' W 013°51'1011.9
2016-Aug-05 10:33N 32°52' W 013°47'1211.9
2016-Aug-05 09:33N 33°03' W 013°43'1311.8
2016-Aug-05 08:28N 33°16' W 013°39'2311.9
2016-Aug-05 06:32N 33°38' W 013°32'4911.8
2016-Aug-05 02:25N 34°25' W 013°17'1012.0
2016-Aug-05 01:33N 34°35' W 013°13'1212.2
2016-Aug-05 00:32N 34°47' W 013°09'20211.9
2016-Aug-04 07:31N 38°01' W 011°58'1711.7
2016-Aug-04 06:07N 38°17' W 011°52'1911.8
2016-Aug-04 04:33N 38°34' W 011°46'2912.1
2016-Aug-04 02:09N 39°02' W 011°35'3111.9
2016-Aug-03 23:32N 39°32' W 011°24'1212.1
2016-Aug-03 22:33N 39°43' W 011°19'1212.1
2016-Aug-03 21:33N 39°55' W 011°15'1212.0
2016-Aug-03 20:33N 40°06' W 011°10'1212.0
2016-Aug-03 19:33N 40°18' W 011°06'1212.0
2016-Aug-03 18:33N 40°30' W 011°02'1211.8
2016-Aug-03 17:34N 40°41' W 010°57'46211.2
2016-Aug-02 00:21N 47°45' W 006°43'810.0
2016-Aug-01 23:33N 47°53' W 006°37'16610.3
2016-Aug-01 07:24N 49°46' W 003°33'1810.0
2016-Aug-01 05:33N 49°55' W 003°09'10 9.8
2016-Aug-01 04:34N 49°60' W 002°55'1010.4
2016-Aug-01 03:33N 50°03' W 002°40'1311.6
2016-Aug-01 02:27N 50°06' W 002°20'2613.5
2016-Aug-01 00:31N 50°13' W 001°41'2713.8
2016-Jul-31 22:32N 50°21' W 000°60'1111.7
2016-Jul-31 21:33N 50°24' W 000°43'1010.4
2016-Jul-31 20:34N 50°27' W 000°27'10 9.7
2016-Jul-31 19:33N 50°29' W 000°12'9 8.9
2016-Jul-31 18:33N 50°31' E 000°01'9 9.1
2016-Jul-31 17:33N 50°34' E 000°15'1010.2
2016-Jul-31 16:32N 50°37' E 000°31'2611.8
2016-Jul-31 14:19N 50°52' E 001°04'911.6
2016-Jul-31 13:34N 50°58' E 001°15'1110.8
2016-Jul-31 12:33N 51°05' E 001°28'10 9.5
2016-Jul-31 11:33N 51°11' E 001°40'9 9.1
2016-Jul-31 10:34N 51°18' E 001°49'1010.1
2016-Jul-31 09:34N 51°27' E 001°56'1111.3
2016-Jul-31 08:33N 51°36' E 002°08'1212.0
2016-Jul-31 07:34N 51°44' E 002°22'1312.4
2016-Jul-31 06:32N 51°55' E 002°33'1313.1
2016-Jul-31 05:33N 52°07' E 002°37'4911.4
2016-Jul-31 01:15N 52°52' E 003°13'37210.7
2016-Jul-29 14:24N 57°45' E 009°54'2110.9
2016-Jul-29 12:26N 57°49' E 010°33'8 9.2
2016-Jul-29 11:33N 57°45' E 010°46'6 4.9
2016-Jul-29 10:23N 57°39' E 010°47'911.2
2016-Jul-29 09:34N 57°35' E 011°03'1211.8
2016-Jul-29 08:33N 57°30' E 011°23'1211.8
2016-Jul-29 07:34N 57°19' E 011°32'1212.1
2016-Jul-29 06:34N 57°08' E 011°39'1212.1
2016-Jul-29 05:33N 56°56' E 011°47'1111.3
2016-Jul-29 04:33N 56°46' E 011°53'3511.4
2016-Jul-29 01:31N 56°22' E 011°07'1111.5
2016-Jul-29 00:31N 56°11' E 011°06'1211.6
2016-Jul-28 23:29N 55°59' E 011°03'1111.8
2016-Jul-28 22:32N 55°50' E 010°50'3210.8
2016-Jul-28 19:33N 55°19' E 011°02'9 8.8
2016-Jul-28 18:34N 55°10' E 011°01'1110.8
2016-Jul-28 17:34N 54°59' E 010°58'1110.8
2016-Jul-28 16:34N 54°50' E 010°50'9 9.5
2016-Jul-28 15:34N 54°40' E 010°49'1110.8
2016-Jul-28 14:34N 54°36' E 011°06'1111.5
2016-Jul-28 13:34N 54°32' E 011°25'1111.5
2016-Jul-28 12:34N 54°27' E 011°43'1111.0
2016-Jul-28 11:34N 54°26' E 012°02'9 8.9
2016-Jul-28 10:34N 54°32' E 012°14'1110.9
2016-Jul-28 09:33N 54°41' E 012°25'5611.2
2016-Jul-28 04:33N 55°02' E 013°55'1110.7
2016-Jul-28 03:33N 55°09' E 014°09'1110.7
2016-Jul-28 02:34N 55°17' E 014°21'1111.3
2016-Jul-28 01:33N 55°25' E 014°34'1111.2
2016-Jul-28 00:33N 55°31' E 014°51'1111.2
2016-Jul-27 23:33N 55°36' E 015°09'1110.9
2016-Jul-27 22:33N 55°40' E 015°27'1411.0
2016-Jul-27 21:19N 55°43' E 015°51'1111.5
2016-Jul-27 20:22N 55°46' E 016°09'3511.7
2016-Jul-27 17:23N 55°55' E 017°10'1011.7
2016-Jul-27 16:30N 55°57' E 017°28'  
Track history (hours):
 
Tides and Currents Weather Stations Pressure Air Temp Water Temp Dewpoint Dewpoint Depression Visibility Wind Speed Wind Dir Waves Ship Positions

Sea Dolphin C

Last reported at 2016-Aug-06 14:10 UTC. Time now 2016-Aug-24 16:16 UTC.
Position N 28°02' W 015°20'.
Warning: this ship's position is 18 days out of date.

Length 181 m; draft 10.2 m.

Type: Cargo ship. MMSI: 538004513.

Date/timePositionNaut miles runAvg speedWind from/ knotsBaromVisibWave heightAir tempDewpointWater temp
2016-Aug-06 14:10N 28°02' W 015°20'4 6.3
2016-Aug-06 13:34N 28°05' W 015°22'2 2.1
2016-Aug-06 12:33N 28°07' W 015°21'1 0.6
2016-Aug-06 11:34N 28°08' W 015°22'1010.2
2016-Aug-06 10:32N 28°18' W 015°17'23811.9
2016-Aug-05 14:33N 32°06' W 014°02'1211.7
2016-Aug-05 13:33N 32°18' W 013°59'1211.8
2016-Aug-05 12:33N 32°29' W 013°55'1311.9
2016-Aug-05 11:26N 32°42' W 013°51'1011.9
2016-Aug-05 10:33N 32°52' W 013°47'1211.9
2016-Aug-05 09:33N 33°03' W 013°43'1311.8
2016-Aug-05 08:28N 33°16' W 013°39'2311.9
2016-Aug-05 06:32N 33°38' W 013°32'4911.8
2016-Aug-05 02:25N 34°25' W 013°17'1012.0
2016-Aug-05 01:33N 34°35' W 013°13'1212.2
2016-Aug-05 00:32N 34°47' W 013°09'20211.9
2016-Aug-04 07:31N 38°01' W 011°58'1711.7
2016-Aug-04 06:07N 38°17' W 011°52'1911.8
2016-Aug-04 04:33N 38°34' W 011°46'2912.1
2016-Aug-04 02:09N 39°02' W 011°35'3111.9
2016-Aug-03 23:32N 39°32' W 011°24'1212.1
2016-Aug-03 22:33N 39°43' W 011°19'1212.1
2016-Aug-03 21:33N 39°55' W 011°15'1212.0
2016-Aug-03 20:33N 40°06' W 011°10'1212.0
2016-Aug-03 19:33N 40°18' W 011°06'1212.0
2016-Aug-03 18:33N 40°30' W 011°02'1211.8
2016-Aug-03 17:34N 40°41' W 010°57'46211.2
2016-Aug-02 00:21N 47°45' W 006°43'810.0
2016-Aug-01 23:33N 47°53' W 006°37'16610.3
2016-Aug-01 07:24N 49°46' W 003°33'1810.0
2016-Aug-01 05:33N 49°55' W 003°09'10 9.8
2016-Aug-01 04:34N 49°60' W 002°55'1010.4
2016-Aug-01 03:33N 50°03' W 002°40'1311.6
2016-Aug-01 02:27N 50°06' W 002°20'2613.5
2016-Aug-01 00:31N 50°13' W 001°41'2713.8
2016-Jul-31 22:32N 50°21' W 000°60'1111.7
2016-Jul-31 21:33N 50°24' W 000°43'1010.4
2016-Jul-31 20:34N 50°27' W 000°27'10 9.7
2016-Jul-31 19:33N 50°29' W 000°12'9 8.9
2016-Jul-31 18:33N 50°31' E 000°01'9 9.1
2016-Jul-31 17:33N 50°34' E 000°15'1010.2
2016-Jul-31 16:32N 50°37' E 000°31'2611.8
2016-Jul-31 14:19N 50°52' E 001°04'911.6
2016-Jul-31 13:34N 50°58' E 001°15'1110.8
2016-Jul-31 12:33N 51°05' E 001°28'10 9.5
2016-Jul-31 11:33N 51°11' E 001°40'9 9.1
2016-Jul-31 10:34N 51°18' E 001°49'1010.1
2016-Jul-31 09:34N 51°27' E 001°56'1111.3
2016-Jul-31 08:33N 51°36' E 002°08'1212.0
2016-Jul-31 07:34N 51°44' E 002°22'1312.4
2016-Jul-31 06:32N 51°55' E 002°33'1313.1
2016-Jul-31 05:33N 52°07' E 002°37'4911.4
2016-Jul-31 01:15N 52°52' E 003°13'37210.7
2016-Jul-29 14:24N 57°45' E 009°54'2110.9
2016-Jul-29 12:26N 57°49' E 010°33'8 9.2
2016-Jul-29 11:33N 57°45' E 010°46'6 4.9
2016-Jul-29 10:23N 57°39' E 010°47'911.2
2016-Jul-29 09:34N 57°35' E 011°03'1211.8
2016-Jul-29 08:33N 57°30' E 011°23'1211.8
2016-Jul-29 07:34N 57°19' E 011°32'1212.1
2016-Jul-29 06:34N 57°08' E 011°39'1212.1
2016-Jul-29 05:33N 56°56' E 011°47'1111.3
2016-Jul-29 04:33N 56°46' E 011°53'3511.4
2016-Jul-29 01:31N 56°22' E 011°07'1111.5
2016-Jul-29 00:31N 56°11' E 011°06'1211.6
2016-Jul-28 23:29N 55°59' E 011°03'1111.8
2016-Jul-28 22:32N 55°50' E 010°50'3210.8
2016-Jul-28 19:33N 55°19' E 011°02'9 8.8
2016-Jul-28 18:34N 55°10' E 011°01'1110.8
2016-Jul-28 17:34N 54°59' E 010°58'1110.8
2016-Jul-28 16:34N 54°50' E 010°50'9 9.5
2016-Jul-28 15:34N 54°40' E 010°49'1110.8
2016-Jul-28 14:34N 54°36' E 011°06'1111.5
2016-Jul-28 13:34N 54°32' E 011°25'1111.5
2016-Jul-28 12:34N 54°27' E 011°43'1111.0
2016-Jul-28 11:34N 54°26' E 012°02'9 8.9
2016-Jul-28 10:34N 54°32' E 012°14'1110.9
2016-Jul-28 09:33N 54°41' E 012°25'5611.2
2016-Jul-28 04:33N 55°02' E 013°55'1110.7
2016-Jul-28 03:33N 55°09' E 014°09'1110.7
2016-Jul-28 02:34N 55°17' E 014°21'1111.3
2016-Jul-28 01:33N 55°25' E 014°34'1111.2
2016-Jul-28 00:33N 55°31' E 014°51'1111.2
2016-Jul-27 23:33N 55°36' E 015°09'1110.9
2016-Jul-27 22:33N 55°40' E 015°27'1411.0
2016-Jul-27 21:19N 55°43' E 015°51'1111.5
2016-Jul-27 20:22N 55°46' E 016°09'3511.7
2016-Jul-27 17:23N 55°55' E 017°10'1011.7
2016-Jul-27 16:30N 55°57' E 017°28'  

Dump ship's entire track history